Time;durP1;ratioP1;P1;durP2;ratioP2;P2;SDS_P1;SDS_P2;PMS_P1;PMS_P2;Temp;Humidity;BMP_temperature;BMP_pressure;BME280_temperature;BME280_humidity;BME280_pressure;Samples;Min_cycle;Max_cycle;Signal;HPM_P1;HPM_P2
2020/12/29 00:02:22;;;;;;;14.93;7.32;;;7.60;99.90;;;;;;5052475;28;20024;-72
2020/12/29 00:04:48;;;;;;;17.63;8.50;;;7.60;99.90;;;;;;5052481;28;20070;-73
2020/12/29 00:07:14;;;;;;;12.52;7.20;;;7.50;99.90;;;;;;5058066;28;20029;-73
2020/12/29 00:09:39;;;;;;;18.17;9.15;;;7.50;99.90;;;;;;5053730;28;20033;-73
2020/12/29 00:12:05;;;;;;;11.25;7.10;;;7.50;99.90;;;;;;5052537;28;20386;-74
2020/12/29 00:14:31;;;;;;;19.77;8.13;;;7.40;99.90;;;;;;5051714;28;20028;-72
2020/12/29 00:16:56;;;;;;;20.45;7.93;;;7.40;99.90;;;;;;5059059;28;20086;-73
2020/12/29 00:19:27;;;;;;;16.42;7.68;;;7.40;99.90;;;;;;5052034;28;20029;-73
2020/12/29 00:21:53;;;;;;;15.45;7.97;;;7.30;99.90;;;;;;5052183;28;20105;-73
2020/12/29 00:24:19;;;;;;;22.52;8.93;;;7.20;99.90;;;;;;5052095;28;20111;-73
2020/12/29 00:26:44;;;;;;;19.35;10.18;;;7.20;99.90;;;;;;5052798;28;20096;-74
2020/12/29 00:29:10;;;;;;;16.70;8.57;;;7.20;99.90;;;;;;5052246;28;20053;-72
2020/12/29 00:31:37;;;;;;;15.20;7.90;;;7.10;99.90;;;;;;5051424;28;20029;-71
2020/12/29 00:34:03;;;;;;;19.90;8.82;;;7.10;99.90;;;;;;5051299;28;20068;-74
2020/12/29 00:36:30;;;;;;;16.42;7.75;;;7.10;99.90;;;;;;5051813;28;20053;-72
2020/12/29 00:38:56;;;;;;;13.90;8.68;;;7.10;99.90;;;;;;5052470;28;20460;-74
2020/12/29 00:41:23;;;;;;;13.02;8.30;;;7.10;99.90;;;;;;5060780;28;20102;-74
2020/12/29 00:43:48;;;;;;;17.70;8.35;;;7.00;99.90;;;;;;5053333;28;20021;-74
2020/12/29 00:46:17;;;;;;;23.67;9.38;;;7.00;99.90;;;;;;5050798;28;20028;-73
2020/12/29 00:48:43;;;;;;;20.83;9.43;;;6.90;99.90;;;;;;5051572;28;20025;-72
2020/12/29 00:51:12;;;;;;;18.55;7.95;;;6.90;99.90;;;;;;5034112;28;20032;-74
2020/12/29 00:53:38;;;;;;;14.35;8.15;;;6.90;99.90;;;;;;5064268;28;20040;-73
2020/12/29 00:56:06;;;;;;;18.15;8.40;;;6.90;99.90;;;;;;5051503;28;20028;-73
2020/12/29 00:58:32;;;;;;;24.25;9.30;;;6.90;99.90;;;;;;5051705;28;20028;-74
2020/12/29 01:00:57;;;;;;;20.45;8.55;;;6.80;99.90;;;;;;5039158;28;20024;-74
2020/12/29 01:03:24;;;;;;;19.27;7.65;;;6.80;99.90;;;;;;5063341;28;20081;-73
2020/12/29 01:05:50;;;;;;;21.27;8.40;;;6.80;99.90;;;;;;5063842;28;20106;-72
2020/12/29 01:08:16;;;;;;;14.70;8.50;;;6.80;99.90;;;;;;5051444;28;20031;-73
2020/12/29 01:10:43;;;;;;;30.80;8.85;;;6.80;99.90;;;;;;5051600;28;20388;-73
2020/12/29 01:13:09;;;;;;;13.43;7.88;;;6.80;99.90;;;;;;5052378;28;20037;-74
2020/12/29 01:15:35;;;;;;;18.00;8.98;;;6.70;99.90;;;;;;5051642;28;20025;-73
2020/12/29 01:18:01;;;;;;;21.40;8.40;;;6.70;99.90;;;;;;5051151;28;20029;-73
2020/12/29 01:20:27;;;;;;;15.65;8.00;;;6.70;99.90;;;;;;5054642;28;20100;-73
2020/12/29 01:22:53;;;;;;;14.02;7.35;;;6.80;99.90;;;;;;5055908;28;20061;-74
2020/12/29 01:25:20;;;;;;;16.75;8.75;;;6.70;99.90;;;;;;5051119;28;20100;-73
2020/12/29 01:27:46;;;;;;;15.60;7.75;;;6.70;99.90;;;;;;5051594;28;20540;-72
2020/12/29 01:30:13;;;;;;;10.98;7.28;;;6.70;99.90;;;;;;5052670;28;20148;-74
2020/12/29 01:32:39;;;;;;;16.58;8.60;;;6.70;99.90;;;;;;5054703;28;20044;-74
2020/12/29 01:35:05;;;;;;;21.38;8.30;;;6.70;99.90;;;;;;5051498;28;20017;-74
2020/12/29 01:37:32;;;;;;;24.13;8.82;;;6.60;99.90;;;;;;5051283;28;20032;-74
2020/12/29 01:39:57;;;;;;;19.20;8.05;;;6.60;99.90;;;;;;5050689;28;20041;-73
2020/12/29 01:42:23;;;;;;;21.42;8.57;;;6.60;99.90;;;;;;5054592;28;20079;-72
2020/12/29 01:44:49;;;;;;;16.55;9.25;;;6.60;99.90;;;;;;5051773;28;20037;-73
2020/12/29 01:47:16;;;;;;;18.45;8.40;;;6.60;99.90;;;;;;5055094;28;20018;-72
2020/12/29 01:49:43;;;;;;;16.15;7.82;;;6.70;99.90;;;;;;5054789;28;20481;-71
2020/12/29 01:52:08;;;;;;;19.13;8.52;;;6.70;99.90;;;;;;5054752;28;20090;-72
2020/12/29 01:54:35;;;;;;;22.80;7.80;;;6.70;99.90;;;;;;5055172;28;20461;-71
2020/12/29 01:57:00;;;;;;;19.27;8.30;;;6.70;99.90;;;;;;5054543;28;20039;-71
2020/12/29 01:59:26;;;;;;;18.40;7.90;;;6.70;99.90;;;;;;5037088;28;20021;-71
2020/12/29 02:01:53;;;;;;;22.02;8.77;;;6.60;99.90;;;;;;5057665;28;20082;-72
2020/12/29 02:04:19;;;;;;;25.15;8.00;;;6.60;99.90;;;;;;5041201;28;20069;-72
2020/12/29 02:06:45;;;;;;;20.85;8.60;;;6.60;99.90;;;;;;5054871;28;20021;-72
2020/12/29 02:09:14;;;;;;;18.33;8.48;;;6.70;99.90;;;;;;5054700;28;20017;-71
2020/12/29 02:11:40;;;;;;;14.07;8.48;;;6.70;99.90;;;;;;5061707;28;20025;-73
2020/12/29 02:14:08;;;;;;;17.73;8.00;;;6.70;99.90;;;;;;5060458;28;20049;-72
2020/12/29 02:16:42;;;;;;;13.00;7.47;;;6.70;99.90;;;;;;5035897;28;20025;-72
2020/12/29 02:19:08;;;;;;;17.65;8.05;;;6.70;99.90;;;;;;5054048;28;20028;-72
2020/12/29 02:21:35;;;;;;;11.68;6.47;;;6.70;99.90;;;;;;5059268;28;20049;-72
2020/12/29 02:24:02;;;;;;;12.50;6.97;;;6.70;99.90;;;;;;5054394;28;20465;-73
2020/12/29 02:26:31;;;;;;;20.35;8.25;;;6.70;99.90;;;;;;5054038;28;20461;-72
2020/12/29 02:28:58;;;;;;;15.57;7.50;;;6.70;99.90;;;;;;5054554;28;20025;-73
2020/12/29 02:31:24;;;;;;;19.23;7.53;;;6.70;99.90;;;;;;5056882;28;20480;-73
2020/12/29 02:33:50;;;;;;;14.05;6.82;;;6.70;99.90;;;;;;5061598;28;20120;-74
2020/12/29 02:36:16;;;;;;;16.48;7.38;;;6.70;99.90;;;;;;5053934;28;20086;-74
2020/12/29 02:38:41;;;;;;;15.23;6.93;;;6.80;99.90;;;;;;5053443;28;20048;-74
2020/12/29 02:41:07;;;;;;;13.75;6.60;;;6.80;99.90;;;;;;5039460;28;20091;-74
2020/12/29 02:43:33;;;;;;;15.15;6.75;;;6.80;99.90;;;;;;5059179;28;20024;-73
2020/12/29 02:45:59;;;;;;;11.77;6.50;;;6.90;99.90;;;;;;5053963;28;20385;-74
2020/12/29 02:48:24;;;;;;;15.38;6.88;;;6.90;99.90;;;;;;5053580;28;20431;-74
2020/12/29 02:50:50;;;;;;;14.30;5.97;;;7.00;99.90;;;;;;5053635;28;20029;-72
2020/12/29 02:53:16;;;;;;;12.85;6.40;;;7.00;99.90;;;;;;5063851;28;20155;-73
2020/12/29 02:55:42;;;;;;;14.48;6.50;;;7.00;99.90;;;;;;5035511;28;20053;-74
2020/12/29 02:58:08;;;;;;;16.63;6.10;;;7.00;99.90;;;;;;5052729;28;20100;-73
2020/12/29 03:00:35;;;;;;;14.07;5.18;;;7.10;99.90;;;;;;5053432;28;20414;-73
2020/12/29 03:03:00;;;;;;;19.92;5.95;;;7.10;99.90;;;;;;5053578;28;20560;-73
2020/12/29 03:05:26;;;;;;;17.60;5.50;;;7.10;99.90;;;;;;5053480;28;20017;-72
2020/12/29 03:07:52;;;;;;;12.05;5.05;;;7.20;99.90;;;;;;5052764;28;20079;-72
2020/12/29 03:10:17;;;;;;;8.82;5.43;;;7.20;99.90;;;;;;5053230;28;20466;-72
2020/12/29 03:12:43;;;;;;;9.60;5.53;;;7.20;99.90;;;;;;5053221;28;20041;-74
2020/12/29 03:15:08;;;;;;;10.52;4.85;;;7.20;99.90;;;;;;5035698;28;20031;-72
2020/12/29 03:17:35;;;;;;;9.27;5.05;;;7.20;99.90;;;;;;5053248;28;20393;-72
2020/12/29 03:20:05;;;;;;;14.93;4.88;;;7.30;99.90;;;;;;5035275;28;20021;-72
2020/12/29 03:22:31;;;;;;;11.07;5.22;;;7.30;99.90;;;;;;5053250;28;20492;-72
2020/12/29 03:24:57;;;;;;;10.00;5.22;;;7.30;99.90;;;;;;5053074;28;20040;-73
2020/12/29 03:27:23;;;;;;;14.90;4.93;;;7.30;99.90;;;;;;5052995;28;20021;-73
2020/12/29 03:29:48;;;;;;;12.25;4.50;;;7.40;99.90;;;;;;5052883;28;20028;-73
2020/12/29 03:32:14;;;;;;;9.25;4.55;;;7.40;99.90;;;;;;5052808;28;20086;-74
2020/12/29 03:34:40;;;;;;;17.25;4.40;;;7.40;99.90;;;;;;5052668;28;20032;-73
2020/12/29 03:37:10;;;;;;;13.93;5.00;;;7.50;99.90;;;;;;5053170;28;20031;-72
2020/12/29 03:39:37;;;;;;;15.45;4.90;;;7.50;99.90;;;;;;5049467;28;20104;-73
2020/12/29 03:42:04;;;;;;;13.77;5.25;;;7.50;99.90;;;;;;5032861;28;20026;-75
2020/12/29 03:44:31;;;;;;;16.00;6.47;;;7.60;99.90;;;;;;5032795;28;20025;-73
2020/12/29 03:46:57;;;;;;;20.50;5.05;;;7.70;99.90;;;;;;5032353;28;20462;-73
2020/12/29 03:49:22;;;;;;;10.02;5.10;;;7.80;99.90;;;;;;5032756;28;20039;-73
2020/12/29 03:51:48;;;;;;;17.13;5.63;;;7.80;99.90;;;;;;5032533;28;20448;-74
2020/12/29 03:54:14;;;;;;;10.65;5.43;;;7.90;99.90;;;;;;5032736;28;20104;-72
2020/12/29 03:56:40;;;;;;;12.65;6.00;;;7.90;99.90;;;;;;5032205;28;20075;-73
2020/12/29 03:59:05;;;;;;;12.85;5.57;;;7.90;99.90;;;;;;5031115;28;20029;-72
2020/12/29 04:01:31;;;;;;;23.10;5.95;;;7.90;99.90;;;;;;5033194;28;20017;-74
2020/12/29 04:03:57;;;;;;;16.80;5.45;;;7.90;99.90;;;;;;5033273;28;20125;-74
2020/12/29 04:06:23;;;;;;;13.70;5.20;;;7.90;99.90;;;;;;5032650;28;20025;-73
2020/12/29 04:08:49;;;;;;;20.83;5.80;;;7.90;99.90;;;;;;5031653;28;20060;-72
2020/12/29 04:11:15;;;;;;;13.02;4.85;;;7.90;99.90;;;;;;5032746;28;20083;-72
2020/12/29 04:13:41;;;;;;;11.30;4.75;;;8.00;99.90;;;;;;5032642;28;20029;-72
2020/12/29 04:16:07;;;;;;;9.60;4.28;;;8.10;99.90;;;;;;5032680;28;20096;-73
2020/12/29 04:18:32;;;;;;;17.20;4.63;;;8.20;99.90;;;;;;5032752;28;20588;-73
2020/12/29 04:20:58;;;;;;;11.98;4.72;;;8.20;99.90;;;;;;5032319;28;20037;-72
2020/12/29 04:23:24;;;;;;;10.13;4.53;;;8.30;99.90;;;;;;5032383;28;20017;-72
2020/12/29 04:25:50;;;;;;;8.60;4.28;;;8.30;99.90;;;;;;5032405;28;20036;-72
2020/12/29 04:28:16;;;;;;;19.40;4.32;;;8.30;99.90;;;;;;5032181;28;20022;-72
2020/12/29 04:30:42;;;;;;;18.00;4.93;;;8.30;99.90;;;;;;5032548;28;20044;-72
2020/12/29 04:33:07;;;;;;;9.38;4.00;;;8.40;99.90;;;;;;5032248;28;20474;-72
2020/12/29 04:35:33;;;;;;;21.23;4.15;;;8.40;99.90;;;;;;5014541;28;20022;-73
2020/12/29 04:38:01;;;;;;;11.32;4.32;;;8.40;99.90;;;;;;5032395;28;20026;-74
2020/12/29 04:40:29;;;;;;;14.30;4.32;;;8.50;99.90;;;;;;5042435;28;20047;-74
2020/12/29 04:42:55;;;;;;;20.70;4.22;;;8.50;99.90;;;;;;5052388;28;20021;-73
2020/12/29 04:45:21;;;;;;;13.70;3.90;;;8.50;99.90;;;;;;5052091;28;20350;-72
2020/12/29 04:47:47;;;;;;;17.42;4.13;;;8.50;99.90;;;;;;5051842;28;20032;-72
2020/12/29 04:50:14;;;;;;;14.60;4.68;;;8.60;99.90;;;;;;5051519;28;20013;-74
2020/12/29 04:52:43;;;;;;;15.18;4.63;;;8.60;99.90;;;;;;5052200;28;20064;-73
2020/12/29 04:55:10;;;;;;;13.65;4.03;;;8.60;99.90;;;;;;5051857;28;20020;-73
2020/12/29 04:57:35;;;;;;;11.77;4.10;;;8.70;99.90;;;;;;5051801;28;20025;-73
2020/12/29 05:00:05;;;;;;;16.08;4.50;;;8.70;99.90;;;;;;5051680;28;20083;-74
2020/12/29 05:02:30;;;;;;;14.32;4.38;;;8.70;99.90;;;;;;5051356;28;20017;-73
2020/12/29 05:04:56;;;;;;;18.05;4.50;;;8.80;99.90;;;;;;5051862;28;20035;-72
2020/12/29 05:07:21;;;;;;;11.20;3.90;;;8.70;99.90;;;;;;5051457;28;20009;-73
2020/12/29 05:09:47;;;;;;;12.18;3.72;;;8.70;99.90;;;;;;5051893;28;20029;-72
2020/12/29 05:12:16;;;;;;;13.05;3.60;;;8.70;99.90;;;;;;5051392;28;20040;-73
2020/12/29 05:14:47;;;;;;;16.02;4.35;;;8.70;99.90;;;;;;5051437;28;20025;-73
2020/12/29 05:17:13;;;;;;;14.80;4.00;;;8.80;99.90;;;;;;5051240;28;20059;-73
2020/12/29 05:19:41;;;;;;;19.08;6.47;;;8.80;99.90;;;;;;5051251;28;20032;-72
2020/12/29 05:22:08;;;;;;;12.05;4.70;;;8.80;99.90;;;;;;5051283;28;20025;-73
2020/12/29 05:24:33;;;;;;;22.80;3.78;;;8.80;99.90;;;;;;5051318;28;20016;-73
2020/12/29 05:27:01;;;;;;;14.48;3.92;;;8.80;99.90;;;;;;5050037;28;20365;-73
2020/12/29 05:29:27;;;;;;;9.07;3.95;;;8.80;99.90;;;;;;5051317;28;20423;-74
2020/12/29 05:31:54;;;;;;;27.98;5.93;;;8.80;99.90;;;;;;5051600;28;20023;-73
2020/12/29 05:34:24;;;;;;;15.45;4.68;;;8.80;99.90;;;;;;5051317;28;20036;-72
2020/12/29 05:36:51;;;;;;;8.38;3.30;;;8.90;99.90;;;;;;5051554;28;20363;-73
2020/12/29 05:39:18;;;;;;;16.73;3.83;;;8.90;99.90;;;;;;5051330;28;20676;-73
2020/12/29 05:41:49;;;;;;;10.82;3.13;;;9.00;99.90;;;;;;5051309;28;20024;-73
2020/12/29 05:44:27;;;;;;;11.57;4.30;;;9.10;99.90;;;;;;5050399;28;20381;-73
2020/12/29 05:46:58;;;;;;;7.47;2.70;;;9.10;99.90;;;;;;5045226;28;20029;-73
2020/12/29 05:49:25;;;;;;;12.20;3.00;;;9.30;99.90;;;;;;5051044;28;20021;-72
2020/12/29 05:51:55;;;;;;;10.73;3.25;;;9.50;99.90;;;;;;5044272;28;20099;-72
2020/12/29 05:54:23;;;;;;;14.68;3.15;;;9.70;99.90;;;;;;5051614;28;20381;-74
2020/12/29 05:56:54;;;;;;;7.00;2.75;;;9.70;99.90;;;;;;5051367;28;20428;-74
2020/12/29 05:59:20;;;;;;;13.98;3.75;;;9.80;99.90;;;;;;5051508;28;20021;-74
2020/12/29 06:01:52;;;;;;;9.73;2.58;;;9.90;99.90;;;;;;5051360;28;20025;-72
2020/12/29 06:04:18;;;;;;;4.32;2.28;;;9.90;99.90;;;;;;5051392;28;20053;-72
2020/12/29 06:06:45;;;;;;;14.38;2.67;;;9.90;99.90;;;;;;5051219;28;20027;-74
2020/12/29 06:09:20;;;;;;;13.77;3.80;;;9.80;99.90;;;;;;5051371;28;20025;-74
2020/12/29 06:11:51;;;;;;;6.05;2.42;;;9.80;99.90;;;;;;5051458;28;20067;-74
2020/12/29 06:14:24;;;;;;;18.40;3.30;;;9.90;99.90;;;;;;5051530;28;20104;-73
2020/12/29 06:16:51;;;;;;;3.78;2.53;;;9.90;99.90;;;;;;5050089;28;20024;-74
2020/12/29 06:19:21;;;;;;;7.13;2.65;;;10.00;99.90;;;;;;5050812;28;20331;-74
2020/12/29 06:22:06;;;;;;;7.22;2.58;;;10.10;99.90;;;;;;5051051;28;20028;-72
2020/12/29 06:24:43;;;;;;;6.90;2.45;;;10.10;99.90;;;;;;5050687;28;20024;-74
2020/12/29 06:27:10;;;;;;;8.48;2.83;;;10.20;99.90;;;;;;5049210;28;20017;-73
2020/12/29 06:29:44;;;;;;;4.55;2.08;;;10.20;99.90;;;;;;5046706;28;20078;-74
2020/12/29 06:32:19;;;;;;;7.50;2.63;;;10.20;99.90;;;;;;5048683;28;20091;-72
2020/12/29 06:34:46;;;;;;;13.45;3.28;;;10.30;99.90;;;;;;5053112;28;20049;-73
2020/12/29 06:37:33;;;;;;;9.45;3.88;;;10.30;99.90;;;;;;5054848;28;20031;-73
2020/12/29 06:40:06;;;;;;;15.35;4.47;;;10.30;99.90;;;;;;5044570;28;20128;-73
2020/12/29 06:42:33;;;;;;;10.27;3.47;;;10.30;99.90;;;;;;5054247;28;20021;-73
2020/12/29 06:45:04;;;;;;;13.43;3.70;;;10.30;99.90;;;;;;5053684;28;20032;-73
2020/12/29 06:47:30;;;;;;;11.37;3.97;;;10.20;99.90;;;;;;5052948;28;20025;-74
2020/12/29 06:49:56;;;;;;;6.18;2.42;;;10.30;99.90;;;;;;5050978;28;20318;-75
2020/12/29 06:52:24;;;;;;;11.02;3.55;;;10.30;99.90;;;;;;5052277;28;20416;-75
2020/12/29 06:55:01;;;;;;;9.73;2.55;;;10.30;99.90;;;;;;5052216;28;20373;-75
2020/12/29 06:57:35;;;;;;;12.20;2.38;;;10.30;99.90;;;;;;5053705;28;20024;-75
2020/12/29 07:00:22;;;;;;;11.38;2.60;;;10.30;99.90;;;;;;5053259;28;20358;-74
2020/12/29 07:02:50;;;;;;;10.23;2.65;;;10.30;99.90;;;;;;5052744;28;20060;-75
2020/12/29 07:05:16;;;;;;;10.55;2.00;;;10.40;99.90;;;;;;5047016;28;20028;-73
2020/12/29 07:07:50;;;;;;;11.10;2.30;;;10.40;99.90;;;;;;5033950;28;20037;-75
2020/12/29 07:10:16;;;;;;;6.57;2.00;;;10.30;99.90;;;;;;5034244;28;20033;-75
2020/12/29 07:12:51;;;;;;;14.45;2.70;;;10.30;99.90;;;;;;5032773;28;20064;-72
2020/12/29 07:15:22;;;;;;;10.88;2.50;;;10.30;99.90;;;;;;5033658;28;20079;-71
2020/12/29 07:17:58;;;;;;;15.07;2.47;;;10.20;99.90;;;;;;5034854;28;20030;-75
2020/12/29 07:20:26;;;;;;;6.93;2.78;;;10.20;99.90;;;;;;5049351;28;20025;-75
2020/12/29 07:23:04;;;;;;;11.68;2.55;;;10.10;99.90;;;;;;5044728;28;20048;-73
2020/12/29 07:25:31;;;;;;;17.05;3.20;;;10.10;99.90;;;;;;5049295;28;20481;-73
2020/12/29 07:28:05;;;;;;;10.60;2.38;;;10.10;99.90;;;;;;5033332;28;20038;-74
2020/12/29 07:30:32;;;;;;;8.45;2.13;;;10.10;99.90;;;;;;5034464;28;20466;-74
2020/12/29 07:33:03;;;;;;;22.55;2.63;;;10.10;99.90;;;;;;5033432;28;20469;-73
2020/12/29 07:35:33;;;;;;;9.50;2.30;;;10.10;99.90;;;;;;5033132;28;20061;-73
2020/12/29 07:38:13;;;;;;;9.55;2.15;;;10.00;99.90;;;;;;5014738;28;20060;-72
2020/12/29 07:40:39;;;;;;;11.77;2.00;;;9.90;99.90;;;;;;5032316;28;20191;-73
2020/12/29 07:43:06;;;;;;;11.50;2.78;;;9.80;99.90;;;;;;5032575;28;20037;-73
2020/12/29 07:45:32;;;;;;;10.20;2.20;;;9.80;99.90;;;;;;5033130;28;20496;-73
2020/12/29 07:47:59;;;;;;;9.68;2.20;;;9.70;99.90;;;;;;5033400;28;20029;-73
2020/12/29 07:50:26;;;;;;;9.65;2.58;;;9.70;99.90;;;;;;5033630;28;20033;-74
2020/12/29 07:53:09;;;;;;;5.53;2.38;;;9.70;99.90;;;;;;5033283;28;20034;-73
2020/12/29 07:55:36;;;;;;;6.43;2.78;;;9.70;99.90;;;;;;5031275;28;20026;-74
2020/12/29 07:58:06;;;;;;;8.30;2.50;;;9.60;99.90;;;;;;5027267;28;20018;-73
2020/12/29 08:00:36;;;;;;;9.13;2.33;;;9.60;99.90;;;;;;5013617;28;20401;-74
2020/12/29 08:03:02;;;;;;;8.30;2.53;;;9.70;99.90;;;;;;5015015;28;20108;-73
2020/12/29 08:05:30;;;;;;;7.55;2.55;;;9.70;99.90;;;;;;5032420;28;20021;-73
2020/12/29 08:07:58;;;;;;;14.25;2.53;;;9.70;99.90;;;;;;5032729;28;20029;-74
2020/12/29 08:10:25;;;;;;;12.40;2.97;;;9.70;99.90;;;;;;5032776;28;20120;-74
2020/12/29 08:12:57;;;;;;;11.20;2.67;;;9.60;99.90;;;;;;5033261;28;20033;-74
2020/12/29 08:15:32;;;;;;;;;;;9.60;99.90;;;;;;5033555;28;20103;-74
2020/12/29 08:18:01;;;;;;;8.98;2.70;;;9.60;99.90;;;;;;5032843;28;20008;-73
2020/12/29 08:20:27;;;;;;;12.38;3.30;;;9.60;99.90;;;;;;5032839;28;20489;-74
2020/12/29 08:22:53;;;;;;;12.30;3.22;;;9.60;99.90;;;;;;5032641;28;20160;-74
2020/12/29 08:25:19;;;;;;;8.77;2.97;;;9.50;99.90;;;;;;5032816;28;20322;-73
2020/12/29 08:27:45;;;;;;;12.23;3.63;;;9.50;99.90;;;;;;5032451;28;20032;-74
2020/12/29 08:30:11;;;;;;;15.00;3.90;;;9.50;99.90;;;;;;5032435;28;20500;-74
2020/12/29 08:32:38;;;;;;;9.65;2.83;;;9.40;99.90;;;;;;5032436;28;20033;-73
2020/12/29 08:35:05;;;;;;;10.90;3.58;;;9.30;99.90;;;;;;5032638;28;20116;-73
2020/12/29 08:37:34;;;;;;;14.13;3.55;;;9.30;99.90;;;;;;5032689;28;20024;-74
2020/12/29 08:40:20;;;;;;;23.38;3.70;;;9.20;99.90;;;;;;5032702;28;20045;-72
2020/12/29 08:42:49;;;;;;;12.85;3.97;;;9.20;99.90;;;;;;5032732;28;20030;-73
2020/12/29 08:45:15;;;;;;;8.02;3.33;;;9.10;99.90;;;;;;5032524;28;20490;-74
2020/12/29 08:47:45;;;;;;;15.93;3.00;;;9.10;99.90;;;;;;5032396;28;20030;-73
2020/12/29 08:50:23;;;;;;;18.08;3.92;;;8.90;99.90;;;;;;5032199;28;20141;-74
2020/12/29 08:52:53;;;;;;;11.85;3.17;;;8.90;99.90;;;;;;5032585;28;20033;-76
2020/12/29 08:55:30;;;;;;;8.27;2.53;;;8.80;99.90;;;;;;5032083;28;20072;-73
2020/12/29 08:57:57;;;;;;;21.10;3.33;;;8.80;99.90;;;;;;5032452;28;20026;-73
2020/12/29 09:00:27;;;;;;;11.75;2.85;;;8.70;99.90;;;;;;5032504;28;20041;-73
2020/12/29 09:02:53;;;;;;;14.90;2.95;;;8.80;99.90;;;;;;5032665;28;20029;-75
2020/12/29 09:05:28;;;;;;;19.90;3.45;;;8.80;99.90;;;;;;5032003;28;20067;-73
2020/12/29 09:07:55;;;;;;;15.05;4.47;;;8.70;99.90;;;;;;5032371;28;20149;-72
2020/12/29 09:10:21;;;;;;;10.77;3.33;;;8.70;99.90;;;;;;5032210;28;20021;-73
2020/12/29 09:12:47;;;;;;;13.48;2.72;;;8.70;99.90;;;;;;5032036;28;20030;-74
2020/12/29 09:15:24;;;;;;;14.73;3.80;;;8.70;99.90;;;;;;5032309;28;20504;-74
2020/12/29 09:17:57;;;;;;;13.25;2.95;;;8.70;99.90;;;;;;5032087;28;20034;-75
2020/12/29 09:20:30;;;;;;;10.40;2.50;;;8.70;99.90;;;;;;5032520;28;20030;-74
2020/12/29 09:22:59;;;;;;;14.60;3.50;;;8.70;99.90;;;;;;5032166;28;20397;-74
2020/12/29 09:25:37;;;;;;;11.65;2.90;;;8.70;99.90;;;;;;5027494;28;20026;-73
2020/12/29 09:28:12;;;;;;;12.98;3.58;;;8.70;99.90;;;;;;5013245;28;20500;-74
2020/12/29 09:30:39;;;;;;;11.27;3.78;;;8.70;99.90;;;;;;5013142;28;20025;-74
2020/12/29 09:33:05;;;;;;;12.77;3.28;;;8.80;99.90;;;;;;5020165;28;20478;-74
2020/12/29 09:35:32;;;;;;;10.88;4.25;;;8.80;99.90;;;;;;5030820;28;20018;-74
2020/12/29 09:37:59;;;;;;;9.98;3.78;;;8.80;99.90;;;;;;5030654;28;20028;-74
2020/12/29 09:40:26;;;;;;;8.80;3.13;;;8.90;99.90;;;;;;5030725;28;20060;-74
2020/12/29 09:42:52;;;;;;;9.18;4.22;;;8.90;99.90;;;;;;5031531;28;20098;-75
2020/12/29 09:45:19;;;;;;;11.00;3.72;;;8.90;99.90;;;;;;5031120;28;20033;-74
2020/12/29 09:47:45;;;;;;;7.30;3.20;;;8.90;99.90;;;;;;5031460;28;20026;-74
2020/12/29 09:50:11;;;;;;;12.18;3.58;;;8.90;99.90;;;;;;5013160;28;20025;-74
2020/12/29 09:52:37;;;;;;;17.95;4.35;;;8.90;99.90;;;;;;5029768;28;20038;-74
2020/12/29 09:55:06;;;;;;;14.82;4.18;;;9.00;99.90;;;;;;5031076;28;20028;-74
2020/12/29 09:57:32;;;;;;;21.70;4.25;;;9.00;99.90;;;;;;5030398;28;20160;-74
2020/12/29 09:59:58;;;;;;;22.33;5.63;;;9.00;99.90;;;;;;5029502;28;20116;-73
2020/12/29 10:02:24;;;;;;;16.70;5.00;;;9.00;99.90;;;;;;5030306;28;20474;-75
2020/12/29 10:04:50;;;;;;;17.63;4.50;;;9.00;99.90;;;;;;5029951;28;20162;-75
2020/12/29 10:07:16;;;;;;;21.08;4.80;;;9.00;99.90;;;;;;5032973;28;20035;-74
2020/12/29 10:09:42;;;;;;;13.85;5.18;;;9.00;99.90;;;;;;5034336;28;20096;-73
2020/12/29 10:12:07;;;;;;;31.95;7.78;;;9.00;99.90;;;;;;5030057;28;20101;-73
2020/12/29 10:14:33;;;;;;;15.25;4.10;;;8.90;99.90;;;;;;5023651;28;20038;-74
2020/12/29 10:16:59;;;;;;;18.80;3.95;;;9.00;99.90;;;;;;5016773;28;20098;-73
2020/12/29 10:19:24;;;;;;;22.08;3.40;;;9.00;99.90;;;;;;5033691;28;20025;-75
2020/12/29 10:21:52;;;;;;;21.27;4.65;;;9.20;99.90;;;;;;5033859;28;20049;-74
2020/12/29 10:24:17;;;;;;;21.35;4.60;;;9.30;99.90;;;;;;5033748;28;20026;-73
2020/12/29 10:26:43;;;;;;;14.80;3.92;;;9.40;99.90;;;;;;5033517;28;20021;-73
2020/12/29 10:29:09;;;;;;;21.02;3.80;;;9.40;99.90;;;;;;5033576;28;20048;-73
2020/12/29 10:31:34;;;;;;;13.55;3.70;;;9.50;99.90;;;;;;5033692;28;20017;-74
2020/12/29 10:34:02;;;;;;;19.45;5.63;;;9.50;99.90;;;;;;5033042;28;20056;-74
2020/12/29 10:36:35;;;;;;;23.63;7.97;;;9.50;99.90;;;;;;5029245;28;20029;-74
2020/12/29 10:39:02;;;;;;;25.92;12.10;;;9.50;99.90;;;;;;5033051;28;20104;-74
2020/12/29 10:41:29;;;;;;;21.05;8.75;;;9.50;99.90;;;;;;5051079;28;20565;-74
2020/12/29 10:43:55;;;;;;;21.83;5.38;;;9.50;99.90;;;;;;5051301;28;20025;-74
2020/12/29 10:46:22;;;;;;;16.70;4.75;;;9.60;99.90;;;;;;5041150;28;20039;-73
2020/12/29 10:48:49;;;;;;;13.50;4.85;;;9.60;99.90;;;;;;5036372;28;20029;-73
2020/12/29 10:51:18;;;;;;;16.52;5.18;;;9.70;99.90;;;;;;5043799;28;20068;-73
2020/12/29 10:53:44;;;;;;;19.10;4.82;;;9.60;99.90;;;;;;5040207;28;20044;-72
2020/12/29 10:56:10;;;;;;;18.75;5.00;;;9.70;99.90;;;;;;5045397;28;20021;-72
2020/12/29 10:58:42;;;;;;;27.45;5.30;;;9.70;99.90;;;;;;5051992;28;20473;-73
2020/12/29 11:01:08;;;;;;;12.77;4.80;;;9.80;99.90;;;;;;5049112;28;20029;-73
2020/12/29 11:03:34;;;;;;;21.38;4.85;;;9.90;99.90;;;;;;5046098;28;20078;-73
2020/12/29 11:06:00;;;;;;;21.27;5.47;;;10.10;99.90;;;;;;5049674;28;20440;-72
2020/12/29 11:08:26;;;;;;;22.98;4.82;;;10.10;99.90;;;;;;5049728;28;20028;-72
2020/12/29 11:10:52;;;;;;;29.45;11.02;;;10.20;99.90;;;;;;5043045;28;20474;-72
2020/12/29 11:13:18;;;;;;;42.05;22.80;;;10.30;99.90;;;;;;5035261;28;20056;-72
2020/12/29 11:15:44;;;;;;;23.48;12.57;;;10.30;99.90;;;;;;5048400;28;20600;-74
2020/12/29 11:18:10;;;;;;;27.73;6.68;;;10.40;99.90;;;;;;5051656;28;20538;-75
2020/12/29 11:20:35;;;;;;;19.50;7.80;;;10.40;99.90;;;;;;5052315;28;20678;-72
2020/12/29 11:23:01;;;;;;;14.93;5.20;;;10.40;99.90;;;;;;5051556;28;20099;-72
2020/12/29 11:25:28;;;;;;;12.38;4.25;;;10.40;99.90;;;;;;5051251;28;20103;-73
2020/12/29 11:27:53;;;;;;;21.88;7.00;;;10.50;99.90;;;;;;5050824;28;20029;-72
2020/12/29 11:30:19;;;;;;;20.48;4.78;;;10.40;99.90;;;;;;5051531;28;20096;-73
2020/12/29 11:32:45;;;;;;;9.23;3.72;;;10.50;99.90;;;;;;5051703;28;20104;-73
2020/12/29 11:35:10;;;;;;;57.38;31.98;;;10.50;99.90;;;;;;5051644;28;20033;-73
2020/12/29 11:37:36;;;;;;;29.05;12.93;;;10.50;99.90;;;;;;5050769;28;20075;-73
2020/12/29 11:40:02;;;;;;;19.85;7.20;;;10.50;99.90;;;;;;5051658;28;20045;-73
2020/12/29 11:42:28;;;;;;;21.35;7.15;;;10.50;99.90;;;;;;5051367;28;20037;-74
2020/12/29 11:44:54;;;;;;;17.45;7.18;;;10.40;99.90;;;;;;5051731;28;20029;-75
2020/12/29 11:47:19;;;;;;;26.30;6.97;;;10.40;99.90;;;;;;5051467;28;20450;-73
2020/12/29 11:49:45;;;;;;;19.60;6.25;;;10.30;99.90;;;;;;5051301;28;20061;-73
2020/12/29 11:52:11;;;;;;;30.70;15.07;;;10.30;99.90;;;;;;5042532;28;20021;-73
2020/12/29 11:54:36;;;;;;;39.45;25.27;;;10.30;99.90;;;;;;5044550;28;20100;-73
2020/12/29 11:57:02;;;;;;;19.38;5.88;;;10.30;99.90;;;;;;5051257;28;20029;-74
2020/12/29 11:59:28;;;;;;;25.15;6.43;;;10.30;99.90;;;;;;5049130;28;20076;-73
2020/12/29 12:01:53;;;;;;;11.30;3.85;;;10.40;99.90;;;;;;5048016;28;20051;-74
2020/12/29 12:04:19;;;;;;;11.25;3.17;;;10.50;99.90;;;;;;5051829;28;20021;-73
2020/12/29 12:06:45;;;;;;;22.98;4.50;;;10.60;99.90;;;;;;5052139;28;20095;-73
2020/12/29 12:09:12;;;;;;;18.40;3.22;;;10.70;99.90;;;;;;5051105;28;20028;-73
2020/12/29 12:11:38;;;;;;;39.78;21.50;;;10.80;99.90;;;;;;5051699;28;20048;-73
2020/12/29 12:14:04;;;;;;;23.58;10.82;;;10.80;99.90;;;;;;5051478;28;20048;-73
2020/12/29 12:16:36;;;;;;;20.50;6.25;;;10.80;99.90;;;;;;5039739;28;20029;-73
2020/12/29 12:19:02;;;;;;;16.98;4.43;;;10.80;99.90;;;;;;5051330;28;20032;-73
2020/12/29 12:21:31;;;;;;;20.20;5.90;;;10.70;99.90;;;;;;5051433;28;20021;-72
2020/12/29 12:23:58;;;;;;;16.58;5.80;;;10.80;99.90;;;;;;5050348;28;20024;-72
2020/12/29 12:26:24;;;;;;;21.70;5.47;;;10.70;99.90;;;;;;5051611;28;20537;-73
2020/12/29 12:28:50;;;;;;;25.38;5.88;;;10.80;99.90;;;;;;5051640;28;20029;-73
2020/12/29 12:31:16;;;;;;;12.77;3.95;;;10.70;99.90;;;;;;5050680;28;20516;-72
2020/12/29 12:33:42;;;;;;;20.85;4.93;;;10.80;99.90;;;;;;5050792;28;20041;-73
2020/12/29 12:36:08;;;;;;;33.50;6.25;;;10.80;99.90;;;;;;5050949;28;20051;-73
2020/12/29 12:38:34;;;;;;;31.85;6.60;;;10.80;99.90;;;;;;5050560;28;20061;-73
2020/12/29 12:41:01;;;;;;;31.85;7.28;;;10.80;99.90;;;;;;5050719;28;20041;-73
2020/12/29 12:43:27;;;;;;;27.35;8.35;;;10.80;99.90;;;;;;5050914;28;20109;-73
2020/12/29 12:45:53;;;;;;;25.98;7.40;;;10.80;99.90;;;;;;5051138;28;20100;-73
2020/12/29 12:48:19;;;;;;;32.78;8.32;;;10.80;99.90;;;;;;5051105;28;20414;-73